Time;durP1;ratioP1;P1;durP2;ratioP2;P2;SDS_P1;SDS_P2;PMS_P1;PMS_P2;Temp;Humidity;BMP_temperature;BMP_pressure;BME280_temperature;BME280_humidity;BME280_pressure;Samples;Min_cycle;Max_cycle;Signal;HPM_P1;HPM_P2
2023/04/16 00:01:00;;;;;;;5.28;2.40;;;;;;;;;;5074750;28;20060;-60
2023/04/16 00:03:27;;;;;;;9.52;2.85;;;;;;;;;;5065062;28;20088;-60
2023/04/16 00:05:55;;;;;;;9.82;2.92;;;;;;;;;;5063131;28;21041;-61
2023/04/16 00:08:23;;;;;;;12.30;2.63;;;;;;;;;;5062788;28;20136;-60
2023/04/16 00:10:50;;;;;;;11.15;3.63;;;;;;;;;;5064973;28;20514;-61
2023/04/16 00:13:17;;;;;;;9.30;2.88;;;;;;;;;;5064795;28;20482;-60
2023/04/16 00:15:43;;;;;;;9.43;3.60;;;;;;;;;;5070910;28;20083;-61
2023/04/16 00:18:09;;;;;;;6.40;2.88;;;;;;;;;;5064672;28;20496;-59
2023/04/16 00:20:36;;;;;;;10.60;2.78;;;;;;;;;;5064004;28;20526;-61
2023/04/16 00:23:02;;;;;;;11.23;2.78;;;;;;;;;;5064161;28;20052;-60
2023/04/16 00:25:28;;;;;;;6.25;2.00;;;;;;;;;;5072644;28;20060;-60
2023/04/16 00:27:55;;;;;;;6.00;2.88;;;;;;;;;;5065572;28;20053;-60
2023/04/16 00:30:21;;;;;;;14.13;2.65;;;;;;;;;;5050376;28;20057;-59
2023/04/16 00:32:48;;;;;;;8.80;2.80;;;;;;;;;;5063333;28;20056;-59
2023/04/16 00:35:14;;;;;;;11.65;3.05;;;;;;;;;;5075745;28;20512;-58
2023/04/16 00:37:40;;;;;;;6.50;3.03;;;;;;;;;;5062467;28;20057;-61
2023/04/16 00:40:07;;;;;;;4.75;2.78;;;;;;;;;;5063820;28;20148;-59
2023/04/16 00:42:35;;;;;;;5.93;2.72;;;;;;;;;;5064115;28;20602;-60
2023/04/16 00:45:02;;;;;;;6.95;2.80;;;;;;;;;;5063854;28;20057;-59
2023/04/16 00:47:29;;;;;;;10.13;3.80;;;;;;;;;;5064126;28;20049;-59
2023/04/16 00:49:56;;;;;;;14.40;3.70;;;;;;;;;;5063733;28;20052;-60
2023/04/16 00:52:22;;;;;;;10.82;3.30;;;;;;;;;;5058472;28;20045;-60
2023/04/16 00:54:49;;;;;;;9.07;3.45;;;;;;;;;;5056195;28;20582;-60
2023/04/16 00:57:16;;;;;;;16.10;3.10;;;;;;;;;;5064864;28;20057;-59
2023/04/16 00:59:42;;;;;;;8.10;3.65;;;;;;;;;;5067496;28;20525;-60
2023/04/16 01:02:08;;;;;;;12.63;3.67;;;;;;;;;;5069322;28;20606;-59
2023/04/16 01:04:35;;;;;;;14.23;3.58;;;;;;;;;;5062373;28;20092;-60
2023/04/16 01:07:01;;;;;;;12.00;3.95;;;;;;;;;;5063910;28;20049;-59
2023/04/16 01:09:28;;;;;;;17.10;4.22;;;;;;;;;;5064343;28;20612;-60
2023/04/16 01:11:54;;;;;;;12.32;3.90;;;;;;;;;;5062486;28;20065;-59
2023/04/16 01:14:20;;;;;;;7.68;3.25;;;;;;;;;;5056971;28;20049;-60
2023/04/16 01:16:47;;;;;;;10.65;3.30;;;;;;;;;;5051412;28;20069;-59
2023/04/16 01:19:13;;;;;;;9.18;2.90;;;;;;;;;;5064037;28;20057;-57
2023/04/16 01:21:39;;;;;;;11.00;3.95;;;;;;;;;;5063693;28;20061;-60
2023/04/16 01:24:06;;;;;;;12.40;3.63;;;;;;;;;;5069459;28;20088;-61
2023/04/16 01:26:32;;;;;;;9.27;3.60;;;;;;;;;;5064583;28;20057;-60
2023/04/16 01:28:59;;;;;;;11.23;3.70;;;;;;;;;;5064078;28;20057;-59
2023/04/16 01:31:25;;;;;;;8.30;3.95;;;;;;;;;;5063095;28;20084;-60
2023/04/16 01:33:52;;;;;;;9.65;3.13;;;;;;;;;;5050672;28;20139;-59
2023/04/16 01:36:18;;;;;;;10.63;3.75;;;;;;;;;;5065369;28;21029;-61
2023/04/16 01:38:45;;;;;;;16.20;3.83;;;;;;;;;;5067135;28;20057;-60
2023/04/16 01:41:11;;;;;;;13.77;3.90;;;;;;;;;;5065626;28;20049;-60
2023/04/16 01:43:38;;;;;;;9.77;4.22;;;;;;;;;;5065729;28;20057;-60
2023/04/16 01:46:19;;;;;;;13.13;4.45;;;;;;;;;;5069038;28;20049;-60
2023/04/16 01:48:45;;;;;;;8.45;4.47;;;;;;;;;;5072604;28;20075;-60
2023/04/16 01:51:12;;;;;;;8.95;4.05;;;;;;;;;;5070094;28;20091;-59
2023/04/16 01:53:38;;;;;;;23.92;5.57;;;;;;;;;;5066194;28;20491;-58
2023/04/16 01:56:05;;;;;;;13.77;5.18;;;;;;;;;;5066977;28;20210;-60
2023/04/16 01:58:31;;;;;;;13.40;5.97;;;;;;;;;;5065874;28;20057;-58
2023/04/16 02:00:58;;;;;;;11.30;5.38;;;;;;;;;;5068025;28;20579;-61
2023/04/16 02:03:24;;;;;;;15.32;6.00;;;;;;;;;;5066310;28;20496;-60
2023/04/16 02:05:51;;;;;;;19.05;5.63;;;;;;;;;;5066747;28;20103;-59
2023/04/16 02:08:17;;;;;;;13.50;6.20;;;;;;;;;;5066208;28;20427;-59
2023/04/16 02:10:48;;;;;;;18.38;6.55;;;;;;;;;;5065248;28;20057;-61
2023/04/16 02:13:15;;;;;;;12.52;6.80;;;;;;;;;;5066371;28;20644;-59
2023/04/16 02:15:47;;;;;;;17.67;7.97;;;;;;;;;;5049091;28;20140;-59
2023/04/16 02:18:14;;;;;;;16.20;6.82;;;;;;;;;;5066246;28;20052;-59
2023/04/16 02:20:44;;;;;;;18.38;7.80;;;;;;;;;;5059648;28;20053;-60
2023/04/16 02:23:11;;;;;;;16.80;7.03;;;;;;;;;;5066453;28;20052;-60
2023/04/16 02:25:41;;;;;;;15.75;6.93;;;;;;;;;;5050339;28;20435;-58
2023/04/16 02:28:08;;;;;;;19.63;7.60;;;;;;;;;;5066610;28;20052;-59
2023/04/16 02:30:37;;;;;;;24.95;6.93;;;;;;;;;;5066002;28;20095;-60
2023/04/16 02:33:06;;;;;;;15.90;6.53;;;;;;;;;;5063085;28;20114;-60
2023/04/16 02:35:33;;;;;;;18.63;6.63;;;;;;;;;;5047849;28;20061;-59
2023/04/16 02:38:00;;;;;;;12.20;6.68;;;;;;;;;;5066904;28;20060;-59
2023/04/16 02:40:27;;;;;;;16.20;7.15;;;;;;;;;;5065190;28;20057;-57
2023/04/16 02:42:53;;;;;;;15.43;6.90;;;;;;;;;;5066458;28;20056;-58
2023/04/16 02:45:20;;;;;;;16.83;7.00;;;;;;;;;;5076243;28;20083;-59
2023/04/16 02:47:46;;;;;;;20.42;7.55;;;;;;;;;;5066402;28;20061;-59
2023/04/16 02:50:13;;;;;;;19.95;7.35;;;;;;;;;;5065814;28;20546;-60
2023/04/16 02:52:39;;;;;;;27.92;8.18;;;;;;;;;;5066473;28;20049;-59
2023/04/16 02:55:06;;;;;;;16.50;7.25;;;;;;;;;;5065468;28;20903;-61
2023/04/16 02:57:33;;;;;;;16.95;7.60;;;;;;;;;;5067776;28;20053;-60
2023/04/16 03:00:00;;;;;;;16.00;7.65;;;;;;;;;;5072422;28;20186;-60
2023/04/16 03:02:26;;;;;;;17.30;7.75;;;;;;;;;;5061588;28;20072;-61
2023/04/16 03:04:53;;;;;;;16.42;7.78;;;;;;;;;;5071515;28;20083;-59
2023/04/16 03:07:19;;;;;;;17.23;8.95;;;;;;;;;;5066046;28;20431;-59
2023/04/16 03:09:45;;;;;;;21.85;9.63;;;;;;;;;;5068484;28;20052;-61
2023/04/16 03:12:12;;;;;;;28.50;9.82;;;;;;;;;;5077858;28;20061;-60
2023/04/16 03:14:38;;;;;;;23.20;9.07;;;;;;;;;;5063702;28;20547;-60
2023/04/16 03:17:04;;;;;;;24.15;8.98;;;;;;;;;;5065962;28;20475;-60
2023/04/16 03:19:31;;;;;;;20.92;7.93;;;;;;;;;;5066162;28;20515;-60
2023/04/16 03:21:57;;;;;;;21.63;8.13;;;;;;;;;;5064973;28;20068;-60
2023/04/16 03:24:24;;;;;;;23.65;7.22;;;;;;;;;;5073758;28;20134;-60
2023/04/16 03:26:51;;;;;;;16.20;7.47;;;;;;;;;;5066374;28;20064;-61
2023/04/16 03:29:17;;;;;;;18.95;8.20;;;;;;;;;;5065288;28;20496;-60
2023/04/16 03:31:44;;;;;;;19.52;7.93;;;;;;;;;;5063664;28;20057;-60
2023/04/16 03:34:10;;;;;;;23.60;8.50;;;;;;;;;;5060637;28;20618;-62
2023/04/16 03:36:36;;;;;;;19.48;7.05;;;;;;;;;;5065949;28;20484;-61
2023/04/16 03:39:03;;;;;;;18.13;7.32;;;;;;;;;;5061255;28;20137;-60
2023/04/16 03:41:29;;;;;;;15.00;7.85;;;;;;;;;;5066122;28;20123;-59
2023/04/16 03:43:55;;;;;;;20.05;8.23;;;;;;;;;;5065451;28;20053;-61
2023/04/16 03:46:22;;;;;;;22.60;8.27;;;;;;;;;;5063938;28;20059;-60
2023/04/16 03:48:48;;;;;;;14.38;8.25;;;;;;;;;;5065384;28;20642;-60
2023/04/16 03:51:14;;;;;;;19.00;7.72;;;;;;;;;;5064932;28;20115;-60
2023/04/16 03:53:41;;;;;;;16.25;8.15;;;;;;;;;;5063325;28;20510;-59
2023/04/16 03:56:07;;;;;;;16.23;8.00;;;;;;;;;;5059769;28;20116;-59
2023/04/16 03:58:33;;;;;;;18.83;9.13;;;;;;;;;;5063187;28;20067;-60
2023/04/16 04:01:00;;;;;;;21.98;9.18;;;;;;;;;;5072143;28;20057;-60
2023/04/16 04:03:26;;;;;;;19.45;8.73;;;;;;;;;;5065815;28;20522;-56
2023/04/16 04:05:53;;;;;;;18.02;9.40;;;;;;;;;;5063911;28;20133;-60
2023/04/16 04:08:19;;;;;;;23.00;10.30;;;;;;;;;;5068367;28;20063;-60
2023/04/16 04:10:46;;;;;;;23.88;9.35;;;;;;;;;;5071575;28;20126;-60
2023/04/16 04:13:12;;;;;;;25.30;8.88;;;;;;;;;;5064991;28;20056;-60
2023/04/16 04:15:38;;;;;;;27.95;9.23;;;;;;;;;;5063835;28;20053;-59
2023/04/16 04:18:04;;;;;;;21.98;9.68;;;;;;;;;;5064637;28;20075;-60
2023/04/16 04:20:31;;;;;;;18.60;8.15;;;;;;;;;;5048372;28;20209;-60
2023/04/16 04:22:57;;;;;;;21.35;9.85;;;;;;;;;;5063904;28;20052;-60
2023/04/16 04:25:24;;;;;;;18.77;8.90;;;;;;;;;;5048455;28;20053;-58
2023/04/16 04:27:50;;;;;;;21.45;8.82;;;;;;;;;;5060773;28;20052;-60
2023/04/16 04:30:16;;;;;;;22.88;9.45;;;;;;;;;;5064268;28;20049;-59
2023/04/16 04:32:43;;;;;;;24.73;9.32;;;;;;;;;;5065012;28;20141;-60
2023/04/16 04:35:09;;;;;;;23.20;8.23;;;;;;;;;;5051803;28;20053;-59
2023/04/16 04:37:36;;;;;;;21.10;8.20;;;;;;;;;;5054858;28;20064;-59
2023/04/16 04:40:02;;;;;;;21.10;8.57;;;;;;;;;;5066669;28;20519;-59
2023/04/16 04:42:28;;;;;;;21.85;9.85;;;;;;;;;;5064547;28;20061;-59
2023/04/16 04:44:55;;;;;;;15.45;7.80;;;;;;;;;;5063747;28;20045;-60
2023/04/16 04:47:21;;;;;;;20.40;8.40;;;;;;;;;;5064449;28;20522;-58
2023/04/16 04:49:48;;;;;;;22.85;9.68;;;;;;;;;;5063802;28;20088;-60
2023/04/16 04:52:14;;;;;;;20.30;9.00;;;;;;;;;;5067118;28;20614;-60
2023/04/16 04:54:40;;;;;;;18.77;8.90;;;;;;;;;;5064287;28;20111;-59
2023/04/16 04:57:07;;;;;;;25.10;9.30;;;;;;;;;;5064893;28;20057;-60
2023/04/16 04:59:33;;;;;;;26.02;9.68;;;;;;;;;;5066052;28;20053;-60
2023/04/16 05:02:01;;;;;;;18.95;8.70;;;;;;;;;;5078372;28;20523;-59
2023/04/16 05:04:28;;;;;;;24.13;9.18;;;;;;;;;;5071822;28;20556;-60
2023/04/16 05:06:54;;;;;;;26.27;8.82;;;;;;;;;;5069646;28;20606;-60
2023/04/16 05:09:21;;;;;;;22.92;9.13;;;;;;;;;;5064153;28;20060;-60
2023/04/16 05:11:47;;;;;;;21.73;9.32;;;;;;;;;;5067203;28;20094;-60
2023/04/16 05:14:14;;;;;;;23.30;10.15;;;;;;;;;;5067620;28;20049;-59
2023/04/16 05:16:40;;;;;;;25.25;10.30;;;;;;;;;;5067561;28;20057;-60
2023/04/16 05:19:06;;;;;;;21.50;9.45;;;;;;;;;;5067768;28;20045;-60
2023/04/16 05:21:33;;;;;;;20.08;9.18;;;;;;;;;;5067866;28;20064;-60
2023/04/16 05:23:59;;;;;;;29.73;9.63;;;;;;;;;;5067851;28;20084;-60
2023/04/16 05:26:26;;;;;;;23.67;10.82;;;;;;;;;;5065509;28;20067;-60
2023/04/16 05:28:52;;;;;;;23.08;10.30;;;;;;;;;;5065931;28;20080;-61
2023/04/16 05:31:19;;;;;;;22.13;10.25;;;;;;;;;;5070696;28;20052;-58
2023/04/16 05:33:45;;;;;;;23.83;10.40;;;;;;;;;;5072149;28;20057;-60
2023/04/16 05:36:12;;;;;;;27.20;10.18;;;;;;;;;;5066863;28;20140;-60
2023/04/16 05:38:38;;;;;;;18.35;8.82;;;;;;;;;;5075955;28;20053;-61
2023/04/16 05:41:04;;;;;;;23.10;10.93;;;;;;;;;;5069393;28;20057;-60
2023/04/16 05:43:31;;;;;;;24.50;9.95;;;;;;;;;;5068161;28;20053;-61
2023/04/16 05:45:57;;;;;;;22.20;9.80;;;;;;;;;;5071450;28;20041;-61
2023/04/16 05:48:23;;;;;;;21.10;9.40;;;;;;;;;;5056049;28;20053;-60
2023/04/16 05:50:50;;;;;;;26.35;9.25;;;;;;;;;;5077257;28;20058;-60
2023/04/16 05:53:17;;;;;;;24.75;10.88;;;;;;;;;;5062505;28;20087;-60
2023/04/16 05:55:44;;;;;;;17.73;9.68;;;;;;;;;;5067156;28;20139;-61
2023/04/16 05:58:10;;;;;;;21.92;10.57;;;;;;;;;;5078565;28;20621;-61
2023/04/16 06:00:36;;;;;;;24.77;9.32;;;;;;;;;;5066785;28;20057;-60
2023/04/16 06:03:03;;;;;;;26.40;9.73;;;;;;;;;;5066884;28;20064;-59
2023/04/16 06:05:29;;;;;;;27.75;11.02;;;;;;;;;;5066637;28;20199;-58
2023/04/16 06:07:56;;;;;;;26.02;9.48;;;;;;;;;;5066789;28;20518;-59
2023/04/16 06:10:22;;;;;;;23.38;9.15;;;;;;;;;;5067256;28;20060;-60
2023/04/16 06:12:48;;;;;;;24.45;11.52;;;;;;;;;;5066564;28;20160;-60
2023/04/16 06:15:15;;;;;;;37.00;11.32;;;;;;;;;;5066221;28;20518;-59
2023/04/16 06:17:41;;;;;;;27.38;10.45;;;;;;;;;;5066427;28;20057;-61
2023/04/16 06:20:08;;;;;;;24.70;11.43;;;;;;;;;;5066191;28;20072;-59
2023/04/16 06:22:34;;;;;;;20.13;10.40;;;;;;;;;;5062605;28;20057;-58
2023/04/16 06:25:00;;;;;;;24.00;11.18;;;;;;;;;;5063104;28;20053;-60
2023/04/16 06:27:27;;;;;;;24.98;10.90;;;;;;;;;;5065701;28;20487;-60
2023/04/16 06:29:53;;;;;;;24.30;11.48;;;;;;;;;;5068039;28;20057;-58
2023/04/16 06:32:20;;;;;;;26.63;11.70;;;;;;;;;;5074778;28;20490;-59
2023/04/16 06:34:46;;;;;;;23.33;11.20;;;;;;;;;;5060293;28;20568;-60
2023/04/16 06:37:13;;;;;;;27.20;12.10;;;;;;;;;;5072487;28;20049;-60
2023/04/16 06:39:39;;;;;;;32.60;12.32;;;;;;;;;;5065248;28;20055;-60
2023/04/16 06:42:05;;;;;;;23.85;11.88;;;;;;;;;;5066092;28;20143;-60
2023/04/16 06:44:32;;;;;;;20.75;10.73;;;;;;;;;;5078046;28;20582;-60
2023/04/16 06:46:58;;;;;;;23.58;11.15;;;;;;;;;;5066282;28;20052;-58
2023/04/16 06:49:25;;;;;;;23.33;11.35;;;;;;;;;;5066466;28;20454;-61
2023/04/16 06:51:51;;;;;;;23.70;11.25;;;;;;;;;;5067352;28;20076;-60
2023/04/16 06:54:18;;;;;;;24.38;11.07;;;;;;;;;;5065502;28;20506;-60
2023/04/16 06:56:44;;;;;;;28.50;11.95;;;;;;;;;;5073609;28;20554;-59
2023/04/16 06:59:11;;;;;;;22.38;12.40;;;;;;;;;;5076491;28;20560;-60
2023/04/16 07:01:37;;;;;;;28.55;13.60;;;;;;;;;;5070744;28;20057;-59
2023/04/16 07:04:03;;;;;;;29.95;14.55;;;;;;;;;;5065842;28;20136;-60
2023/04/16 07:06:30;;;;;;;28.70;13.95;;;;;;;;;;5067298;28;20151;-58
2023/04/16 07:08:57;;;;;;;31.38;15.02;;;;;;;;;;5081795;28;20057;-59
2023/04/16 07:11:24;;;;;;;28.45;13.27;;;;;;;;;;5068181;28;20132;-58
2023/04/16 07:13:52;;;;;;;23.75;12.63;;;;;;;;;;5078352;28;20515;-60
2023/04/16 07:16:19;;;;;;;20.30;12.10;;;;;;;;;;5065965;28;20126;-61
2023/04/16 07:18:45;;;;;;;22.27;11.75;;;;;;;;;;5070253;28;20056;-60
2023/04/16 07:21:12;;;;;;;20.67;11.75;;;;;;;;;;5070315;28;20061;-60
2023/04/16 07:23:38;;;;;;;22.67;11.60;;;;;;;;;;5070447;28;20052;-61
2023/04/16 07:26:04;;;;;;;25.80;11.27;;;;;;;;;;5068903;28;20064;-60
2023/04/16 07:28:31;;;;;;;23.90;10.85;;;;;;;;;;5068219;28;20056;-59
2023/04/16 07:30:57;;;;;;;27.85;11.18;;;;;;;;;;5067570;28;20049;-61
2023/04/16 07:33:23;;;;;;;23.30;10.65;;;;;;;;;;5066768;28;20053;-59
2023/04/16 07:35:50;;;;;;;22.77;11.45;;;;;;;;;;5067594;28;20049;-61
2023/04/16 07:38:16;;;;;;;21.30;10.93;;;;;;;;;;5081062;28;20112;-61
2023/04/16 07:40:43;;;;;;;20.65;11.02;;;;;;;;;;5072717;28;20091;-59
2023/04/16 07:43:09;;;;;;;19.95;10.20;;;;;;;;;;5064780;28;20057;-60
2023/04/16 07:45:36;;;;;;;25.35;10.80;;;;;;;;;;5074239;28;20577;-60
2023/04/16 07:48:02;;;;;;;17.33;10.55;;;;;;;;;;5077422;28;20048;-59
2023/04/16 07:50:29;;;;;;;15.80;8.95;;;;;;;;;;5064872;28;20514;-60
2023/04/16 07:52:55;;;;;;;17.52;9.40;;;;;;;;;;5062260;28;20490;-60
2023/04/16 07:55:21;;;;;;;20.23;10.10;;;;;;;;;;5062824;28;20163;-58
2023/04/16 07:57:48;;;;;;;23.35;9.50;;;;;;;;;;5065287;28;20064;-60
2023/04/16 08:00:14;;;;;;;18.95;8.95;;;;;;;;;;5065586;28;20443;-60
2023/04/16 08:02:41;;;;;;;16.95;8.98;;;;;;;;;;5071082;28;20057;-59
2023/04/16 08:05:08;;;;;;;25.48;9.50;;;;;;;;;;5073805;28;20140;-60
2023/04/16 08:07:35;;;;;;;14.15;7.65;;;;;;;;;;5062660;28;20499;-61
2023/04/16 08:10:01;;;;;;;18.05;8.50;;;;;;;;;;5068460;28;20052;-61
2023/04/16 08:12:28;;;;;;;11.43;7.50;;;;;;;;;;5072898;28;20147;-61
2023/04/16 08:14:55;;;;;;;14.02;8.02;;;;;;;;;;5081324;28;20059;-61
2023/04/16 08:17:21;;;;;;;13.20;7.82;;;;;;;;;;5083041;28;20519;-60
2023/04/16 08:19:47;;;;;;;15.18;8.30;;;;;;;;;;5068982;28;20255;-60
2023/04/16 08:22:14;;;;;;;13.32;7.53;;;;;;;;;;5057678;28;20045;-59
2023/04/16 08:24:40;;;;;;;14.68;7.55;;;;;;;;;;5059312;28;20060;-60
2023/04/16 08:27:06;;;;;;;14.18;7.40;;;;;;;;;;5065562;28;20049;-60
2023/04/16 08:29:44;;;;;;;9.82;6.75;;;;;;;;;;5077208;28;20110;-60
2023/04/16 08:32:10;;;;;;;16.35;7.30;;;;;;;;;;5071623;28;20421;-60
2023/04/16 08:34:37;;;;;;;14.43;6.65;;;;;;;;;;5068755;28;20079;-59
2023/04/16 08:37:03;;;;;;;9.73;6.22;;;;;;;;;;5067769;28;20387;-61
2023/04/16 08:39:29;;;;;;;11.07;5.95;;;;;;;;;;5078426;28;20052;-59
2023/04/16 08:41:57;;;;;;;10.55;6.22;;;;;;;;;;5074714;28;20055;-59
2023/04/16 08:44:30;;;;;;;11.32;6.80;;;;;;;;;;5070904;28;20518;-60
2023/04/16 08:46:58;;;;;;;10.63;5.82;;;;;;;;;;5071734;28;20064;-60
2023/04/16 08:49:26;;;;;;;10.90;5.82;;;;;;;;;;5095070;27;20088;-60
2023/04/16 08:51:53;;;;;;;10.57;6.50;;;;;;;;;;5067820;28;20515;-59
2023/04/16 08:54:37;;;;;;;10.40;6.40;;;;;;;;;;5062776;28;20053;-60
2023/04/16 08:57:05;;;;;;;9.25;5.88;;;;;;;;;;5064399;28;20053;-59
2023/04/16 08:59:32;;;;;;;10.00;6.15;;;;;;;;;;5066395;28;20107;-60
2023/04/16 09:01:59;;;;;;;10.05;5.65;;;;;;;;;;5065167;28;20535;-61
2023/04/16 09:04:27;;;;;;;9.93;5.95;;;;;;;;;;5062825;28;20084;-61
2023/04/16 09:06:54;;;;;;;9.00;5.68;;;;;;;;;;5054995;28;20508;-60
2023/04/16 09:09:21;;;;;;;9.35;4.88;;;;;;;;;;5064049;28;20140;-61
2023/04/16 09:11:49;;;;;;;11.80;5.63;;;;;;;;;;5070502;28;20056;-60
2023/04/16 09:14:16;;;;;;;7.95;5.05;;;;;;;;;;5068606;28;20477;-61
2023/04/16 09:16:44;;;;;;;9.23;5.20;;;;;;;;;;5061452;28;20053;-62
2023/04/16 09:19:10;;;;;;;10.85;5.78;;;;;;;;;;5063421;28;20099;-57
2023/04/16 09:21:39;;;;;;;9.25;5.45;;;;;;;;;;5062882;28;20586;-61
2023/04/16 09:24:06;;;;;;;11.88;4.97;;;;;;;;;;5075835;28;20052;-59
2023/04/16 09:26:33;;;;;;;8.50;5.28;;;;;;;;;;5064807;28;20526;-61
2023/04/16 09:28:59;;;;;;;8.32;5.70;;;;;;;;;;5072819;28;20503;-59
2023/04/16 09:31:26;;;;;;;11.18;5.13;;;;;;;;;;5071558;28;20063;-59
2023/04/16 09:34:00;;;;;;;12.05;5.75;;;;;;;;;;5064161;28;20112;-58
2023/04/16 09:36:26;;;;;;;8.55;5.53;;;;;;;;;;5061023;28;20056;-59
2023/04/16 09:38:53;;;;;;;8.35;6.22;;;;;;;;;;5064611;28;20140;-59
2023/04/16 09:41:34;;;;;;;9.10;6.85;;;;;;;;;;5063581;28;20068;-58
2023/04/16 09:44:03;;;;;;;13.73;7.03;;;;;;;;;;5072257;28;20075;-58
2023/04/16 09:46:30;;;;;;;9.80;6.32;;;;;;;;;;5063031;28;20052;-58
2023/04/16 09:48:57;;;;;;;11.88;6.22;;;;;;;;;;5073091;28;20130;-61
2023/04/16 09:51:25;;;;;;;9.38;5.95;;;;;;;;;;5068185;28;20091;-59
2023/04/16 09:53:53;;;;;;;10.90;7.30;;;;;;;;;;5062868;28;20053;-60
2023/04/16 09:56:22;;;;;;;12.55;7.00;;;;;;;;;;5078475;28;20080;-60
2023/04/16 09:58:48;;;;;;;11.27;6.72;;;;;;;;;;5066230;28;20084;-59
2023/04/16 10:01:16;;;;;;;10.40;6.80;;;;;;;;;;5068401;28;20059;-58
2023/04/16 10:03:48;;;;;;;18.67;7.18;;;;;;;;;;5067288;28;20057;-59
2023/04/16 10:06:15;;;;;;;12.55;8.55;;;;;;;;;;5067684;28;20100;-59
2023/04/16 10:08:42;;;;;;;17.88;8.85;;;;;;;;;;5073464;28;20060;-60
2023/04/16 10:11:09;;;;;;;16.73;8.52;;;;;;;;;;5081240;28;20052;-59
2023/04/16 10:13:35;;;;;;;17.33;9.50;;;;;;;;;;5079240;28;20086;-59
2023/04/16 10:16:02;;;;;;;19.17;9.57;;;;;;;;;;5080316;28;20130;-60
2023/04/16 10:18:29;;;;;;;15.77;8.75;;;;;;;;;;5064151;28;20052;-59
2023/04/16 10:20:56;;;;;;;17.10;8.63;;;;;;;;;;5080835;28;20526;-60
2023/04/16 10:23:22;;;;;;;11.82;8.57;;;;;;;;;;5080282;28;20052;-60
2023/04/16 10:25:49;;;;;;;15.38;7.82;;;;;;;;;;5083549;28;20569;-60
2023/04/16 10:28:15;;;;;;;15.02;8.38;;;;;;;;;;5072223;28;20060;-60
2023/04/16 10:30:51;;;;;;;17.73;8.70;;;;;;;;;;5066370;28;20048;-59
2023/04/16 10:33:19;;;;;;;13.90;9.05;;;;;;;;;;5064447;28;20059;-60
2023/04/16 10:35:45;;;;;;;14.50;8.13;;;;;;;;;;5061241;28;20528;-59
2023/04/16 10:38:31;;;;;;;14.45;9.10;;;;;;;;;;5072705;28;20049;-60
2023/04/16 10:40:59;;;;;;;21.98;9.57;;;;;;;;;;5077425;28;20048;-60
2023/04/16 10:43:27;;;;;;;21.65;9.98;;;;;;;;;;5073383;28;20076;-62
2023/04/16 10:45:54;;;;;;;19.25;10.40;;;;;;;;;;5076014;28;20084;-60
2023/04/16 10:48:22;;;;;;;20.08;11.63;;;;;;;;;;5065924;28;20065;-59
2023/04/16 10:50:56;;;;;;;24.40;10.10;;;;;;;;;;5071615;28;20132;-62
2023/04/16 10:53:24;;;;;;;17.13;10.05;;;;;;;;;;5066229;28;20053;-59
2023/04/16 10:56:06;;;;;;;17.90;9.95;;;;;;;;;;5067551;28;20056;-62
2023/04/16 10:58:35;;;;;;;20.80;10.00;;;;;;;;;;5065989;28;20057;-60
2023/04/16 11:01:12;;;;;;;18.50;9.15;;;;;;;;;;5063704;28;20084;-62
2023/04/16 11:03:42;;;;;;;15.88;9.45;;;;;;;;;;5078758;28;20049;-62
2023/04/16 11:06:13;;;;;;;15.57;9.82;;;;;;;;;;5070478;28;20578;-61
2023/04/16 11:08:40;;;;;;;14.23;9.02;;;;;;;;;;5069654;28;20053;-62
2023/04/16 11:11:20;;;;;;;20.70;8.55;;;;;;;;;;5079431;28;20060;-62
2023/04/16 11:13:46;;;;;;;13.07;8.35;;;;;;;;;;5077315;28;20565;-61
2023/04/16 11:16:13;;;;;;;14.85;8.93;;;;;;;;;;5071834;28;20144;-62
2023/04/16 11:18:40;;;;;;;14.02;8.85;;;;;;;;;;5073960;28;20057;-63
2023/04/16 11:21:16;;;;;;;15.10;9.85;;;;;;;;;;5074955;28;20061;-60
2023/04/16 11:23:50;;;;;;;15.13;9.23;;;;;;;;;;5066800;28;20049;-62
2023/04/16 11:26:22;;;;;;;20.58;10.52;;;;;;;;;;5080013;28;20147;-61
2023/04/16 11:28:48;;;;;;;17.10;9.90;;;;;;;;;;5068529;28;20585;-64
2023/04/16 11:31:15;;;;;;;15.63;10.07;;;;;;;;;;5067037;28;20149;-62
2023/04/16 11:33:41;;;;;;;19.73;9.85;;;;;;;;;;5068778;28;20459;-62
2023/04/16 11:36:08;;;;;;;18.33;9.88;;;;;;;;;;5078792;28;20119;-56
2023/04/16 11:38:35;;;;;;;18.25;9.68;;;;;;;;;;5070245;28;20059;-65
2023/04/16 11:41:02;;;;;;;18.50;9.98;;;;;;;;;;5065952;28;20059;-65
2023/04/16 11:43:28;;;;;;;14.23;9.40;;;;;;;;;;5065323;28;20045;-65
2023/04/16 11:45:58;;;;;;;17.70;10.00;;;;;;;;;;5065514;28;20049;-64
2023/04/16 11:48:44;;;;;;;19.30;9.85;;;;;;;;;;5065018;28;20107;-65
2023/04/16 11:51:10;;;;;;;17.65;10.10;;;;;;;;;;5065323;28;20049;-65
2023/04/16 11:53:44;;;;;;;19.17;10.35;;;;;;;;;;5064511;28;20076;-64
2023/04/16 11:56:10;;;;;;;20.98;10.55;;;;;;;;;;5063848;28;20060;-65
2023/04/16 11:58:37;;;;;;;15.70;9.80;;;;;;;;;;5065493;28;20053;-66
2023/04/16 12:01:08;;;;;;;17.73;10.35;;;;;;;;;;5070594;28;20057;-64
2023/04/16 12:03:44;;;;;;;19.45;9.63;;;;;;;;;;5065528;28;20045;-65
2023/04/16 12:06:11;;;;;;;20.10;9.30;;;;;;;;;;5065727;28;20558;-64
2023/04/16 12:08:37;;;;;;;15.93;8.32;;;;;;;;;;5061827;28;20053;-66
2023/04/16 12:11:04;;;;;;;13.25;8.88;;;;;;;;;;5056434;28;20750;-64
2023/04/16 12:13:38;;;;;;;15.00;9.45;;;;;;;;;;5048944;28;20060;-64
2023/04/16 12:16:15;;;;;;;22.98;8.60;;;;;;;;;;5065737;28;20052;-65
2023/04/16 12:18:57;;;;;;;18.98;7.85;;;;;;;;;;5059124;28;20053;-65
2023/04/16 12:21:24;;;;;;;18.13;8.02;;;;;;;;;;5066379;28;20052;-61
2023/04/16 12:23:52;;;;;;;12.68;7.85;;;;;;;;;;5068449;28;20052;-62
2023/04/16 12:26:18;;;;;;;12.35;8.18;;;;;;;;;;5064027;28;20107;-61
2023/04/16 12:28:45;;;;;;;14.38;8.15;;;;;;;;;;5064682;28;20057;-62
2023/04/16 12:31:11;;;;;;;14.48;8.02;;;;;;;;;;5047784;28;20626;-62
2023/04/16 12:33:37;;;;;;;14.98;8.55;;;;;;;;;;5064176;28;20491;-62
2023/04/16 12:36:19;;;;;;;17.90;8.43;;;;;;;;;;5065140;28;20310;-62
2023/04/16 12:38:45;;;;;;;14.32;7.78;;;;;;;;;;5081791;28;20457;-62
2023/04/16 12:41:12;;;;;;;13.68;7.88;;;;;;;;;;5063572;28;20059;-62
2023/04/16 12:43:38;;;;;;;19.77;8.30;;;;;;;;;;5062629;28;20134;-61
2023/04/16 12:46:05;;;;;;;15.02;8.93;;;;;;;;;;5064669;28;20179;-61
2023/04/16 12:48:32;;;;;;;18.70;9.82;;;;;;;;;;5065484;28;20495;-62
2023/04/16 12:50:59;;;;;;;13.70;8.35;;;;;;;;;;5063525;28;20056;-61
2023/04/16 12:53:26;;;;;;;17.88;9.05;;;;;;;;;;5063274;28;20670;-63
2023/04/16 12:55:52;;;;;;;26.17;10.32;;;;;;;;;;5052807;28;20545;-61
2023/04/16 12:58:18;;;;;;;17.40;9.57;;;;;;;;;;5064837;28;20413;-62
2023/04/16 13:00:45;;;;;;;24.13;10.18;;;;;;;;;;5064373;28;20055;-63
2023/04/16 13:03:11;;;;;;;20.35;9.65;;;;;;;;;;5064984;28;20152;-63
2023/04/16 13:05:37;;;;;;;22.40;10.30;;;;;;;;;;5070490;28;20674;-61
2023/04/16 13:08:04;;;;;;;20.27;10.38;;;;;;;;;;5056587;28;20804;-62
2023/04/16 13:10:30;;;;;;;17.25;9.95;;;;;;;;;;5062573;28;20064;-62
2023/04/16 13:12:56;;;;;;;21.95;10.77;;;;;;;;;;5067660;28;20477;-63
2023/04/16 13:15:23;;;;;;;26.73;12.75;;;;;;;;;;5077458;28;20057;-62
2023/04/16 13:17:49;;;;;;;22.25;11.52;;;;;;;;;;5064168;28;20064;-63
2023/04/16 13:20:15;;;;;;;28.42;10.93;;;;;;;;;;5064087;28;20061;-62
2023/04/16 13:22:42;;;;;;;26.58;10.45;;;;;;;;;;5064218;28;20052;-61
2023/04/16 13:25:08;;;;;;;27.23;10.75;;;;;;;;;;5064458;28;20107;-63
2023/04/16 13:27:35;;;;;;;32.40;12.38;;;;;;;;;;5063282;28;20084;-62
2023/04/16 13:30:01;;;;;;;20.33;10.85;;;;;;;;;;5062419;28;20141;-62
2023/04/16 13:32:27;;;;;;;20.88;10.75;;;;;;;;;;5065763;28;20172;-63
2023/04/16 13:34:54;;;;;;;21.65;10.80;;;;;;;;;;5067911;28;20067;-61
2023/04/16 13:37:20;;;;;;;21.33;10.55;;;;;;;;;;5065963;28;20400;-61
2023/04/16 13:39:47;;;;;;;21.63;9.77;;;;;;;;;;5053511;28;20068;-60
2023/04/16 13:42:13;;;;;;;23.23;11.15;;;;;;;;;;5067216;28;20048;-61
2023/04/16 13:44:39;;;;;;;22.10;10.93;;;;;;;;;;5067206;28;20057;-62
2023/04/16 13:47:06;;;;;;;16.85;8.95;;;;;;;;;;5066884;28;20139;-60
2023/04/16 13:49:34;;;;;;;15.02;9.20;;;;;;;;;;5066847;28;20056;-62
2023/04/16 13:52:01;;;;;;;24.23;10.45;;;;;;;;;;5067793;28;20081;-60
2023/04/16 13:54:27;;;;;;;12.70;8.82;;;;;;;;;;5066437;28;20061;-61
2023/04/16 13:56:54;;;;;;;15.73;8.18;;;;;;;;;;5066775;28;20119;-60
2023/04/16 13:59:21;;;;;;;18.05;8.15;;;;;;;;;;5067195;28;20064;-61
2023/04/16 14:01:47;;;;;;;17.67;8.80;;;;;;;;;;5071365;28;20056;-60
2023/04/16 14:04:14;;;;;;;23.55;8.82;;;;;;;;;;5066683;28;20049;-61
2023/04/16 14:06:40;;;;;;;21.73;8.57;;;;;;;;;;5064750;28;20510;-60
2023/04/16 14:09:08;;;;;;;17.02;9.30;;;;;;;;;;5065770;28;20101;-60
2023/04/16 14:11:35;;;;;;;17.88;9.15;;;;;;;;;;5063630;28;20053;-60
2023/04/16 14:14:01;;;;;;;14.73;8.15;;;;;;;;;;5071351;28;20049;-60
2023/04/16 14:16:29;;;;;;;19.35;10.55;;;;;;;;;;5066446;28;20053;-56
2023/04/16 14:18:55;;;;;;;15.98;8.10;;;;;;;;;;5061865;28;20167;-60
2023/04/16 14:21:22;;;;;;;19.83;8.98;;;;;;;;;;5064963;28;20068;-60
2023/04/16 14:23:48;;;;;;;22.80;9.38;;;;;;;;;;5065195;28;20055;-60
2023/04/16 14:26:14;;;;;;;17.42;9.00;;;;;;;;;;5065313;28;20056;-61
2023/04/16 14:28:41;;;;;;;21.55;8.10;;;;;;;;;;5076200;28;20063;-60